createdAt,value
2023-05-28T00:01:56.095Z,87.05
2023-05-28T00:04:23.301Z,86.97
2023-05-28T00:06:52.113Z,86.75
2023-05-28T00:09:18.691Z,86.09
2023-05-28T00:11:45.856Z,86.70
2023-05-28T00:14:12.559Z,87.29
2023-05-28T00:16:39.085Z,87.45
2023-05-28T00:19:06.770Z,87.30
2023-05-28T00:21:35.223Z,87.98
2023-05-28T00:24:01.935Z,87.49
2023-05-28T00:26:31.112Z,87.50
2023-05-28T00:29:00.318Z,87.77
2023-05-28T00:31:26.953Z,87.70
2023-05-28T00:33:55.246Z,88.26
2023-05-28T00:36:22.190Z,88.50
2023-05-28T00:38:48.729Z,88.92
2023-05-28T00:41:23.629Z,89.41
2023-05-28T00:43:51.120Z,89.48
2023-05-28T00:46:20.248Z,90.33
2023-05-28T00:48:47.463Z,89.88
2023-05-28T00:51:15.298Z,90.50
2023-05-28T00:53:45.365Z,90.85
2023-05-28T00:56:13.620Z,91.03
2023-05-28T00:58:44.715Z,90.95
2023-05-28T01:01:11.656Z,90.74
2023-05-28T01:03:43.474Z,90.50
2023-05-28T01:06:14.989Z,90.79
2023-05-28T01:08:43.012Z,91.29
2023-05-28T01:11:15.061Z,90.66
2023-05-28T01:13:44.750Z,91.05
2023-05-28T01:16:12.562Z,90.89
2023-05-28T01:18:45.808Z,90.86
2023-05-28T01:21:12.985Z,90.92
2023-05-28T01:23:48.632Z,90.60
2023-05-28T01:26:21.640Z,90.27
2023-05-28T01:28:50.880Z,90.29
2023-05-28T01:31:18.298Z,91.13
2023-05-28T01:33:46.797Z,90.41
2023-05-28T01:36:32.059Z,90.53
2023-05-28T01:39:03.495Z,90.83
2023-05-28T01:41:32.307Z,90.63
2023-05-28T01:44:00.924Z,90.95
2023-05-28T01:46:28.106Z,91.65
2023-05-28T01:48:56.711Z,91.45
2023-05-28T01:51:24.572Z,91.70
2023-05-28T01:53:51.993Z,91.93
2023-05-28T01:56:18.998Z,92.41
2023-05-28T01:58:49.852Z,92.47
2023-05-28T02:01:26.180Z,92.11
2023-05-28T02:03:54.941Z,91.67
2023-05-28T02:06:23.006Z,92.01
2023-05-28T02:08:49.925Z,91.88
2023-05-28T02:11:16.754Z,92.38
2023-05-28T02:13:43.411Z,92.76
2023-05-28T02:16:13.094Z,92.22
2023-05-28T02:18:40.801Z,92.20
2023-05-28T02:21:07.497Z,92.30
2023-05-28T02:23:34.096Z,93.03
2023-05-28T02:26:02.224Z,93.10
2023-05-28T02:28:29.833Z,92.39
2023-05-28T02:30:56.685Z,92.32
2023-05-28T02:33:23.283Z,92.58
2023-05-28T02:35:49.836Z,92.17
2023-05-28T02:38:18.998Z,92.19
2023-05-28T02:40:47.515Z,91.92
2023-05-28T02:43:14.053Z,92.41
2023-05-28T02:45:40.919Z,92.06
2023-05-28T02:48:08.049Z,91.91
2023-05-28T02:50:34.695Z,92.21
2023-05-28T02:53:01.870Z,92.05
2023-05-28T02:55:28.490Z,92.52
2023-05-28T02:57:56.067Z,93.01
2023-05-28T03:00:23.379Z,92.71
2023-05-28T03:02:50.261Z,92.39
2023-05-28T03:05:16.899Z,92.62
2023-05-28T03:07:43.483Z,92.75
2023-05-28T03:10:11.558Z,92.64
2023-05-28T03:12:38.272Z,92.60
2023-05-28T03:15:05.236Z,92.67
2023-05-28T03:17:32.896Z,93.01
2023-05-28T03:19:59.913Z,93.49
2023-05-28T03:22:27.029Z,92.39
2023-05-28T03:24:54.125Z,93.07
2023-05-28T03:27:21.085Z,92.32
2023-05-28T03:29:47.672Z,93.33
2023-05-28T03:32:17.251Z,92.78
2023-05-28T03:34:44.099Z,93.33
2023-05-28T03:37:10.694Z,92.64
2023-05-28T03:39:37.526Z,93.19
2023-05-28T03:42:04.560Z,92.75
2023-05-28T03:44:31.117Z,93.13
2023-05-28T03:46:58.417Z,93.96
2023-05-28T03:49:25.276Z,93.77
2023-05-28T03:51:51.745Z,93.89
2023-05-28T03:54:18.523Z,93.81
2023-05-28T03:56:45.378Z,93.99
2023-05-28T03:59:12.130Z,93.41
2023-05-28T04:01:38.958Z,93.55
2023-05-28T04:04:07.162Z,93.44
2023-05-28T04:06:34.239Z,93.65
2023-05-28T04:09:01.945Z,93.65
2023-05-28T04:11:31.082Z,93.50
2023-05-28T04:13:58.455Z,93.60
2023-05-28T04:16:25.104Z,93.71
2023-05-28T04:18:52.245Z,93.40
2023-05-28T04:21:19.711Z,90.85
2023-05-28T04:23:49.786Z,89.42
2023-05-28T04:26:17.511Z,91.13
2023-05-28T04:28:44.770Z,91.41
2023-05-28T04:31:11.691Z,92.08
2023-05-28T04:33:38.525Z,92.23
2023-05-28T04:36:05.961Z,92.37
2023-05-28T04:38:34.557Z,92.82
2023-05-28T04:41:01.383Z,93.33
2023-05-28T04:43:30.875Z,92.34
2023-05-28T04:46:00.402Z,92.21
2023-05-28T04:48:28.225Z,92.08
2023-05-28T04:50:56.861Z,92.46
2023-05-28T04:53:23.495Z,92.67
2023-05-28T04:55:50.301Z,92.54
2023-05-28T04:58:18.284Z,92.08
2023-05-28T05:00:46.149Z,92.02
2023-05-28T05:03:13.543Z,92.29
2023-05-28T05:05:44.039Z,91.29
2023-05-28T05:08:14.254Z,87.76
2023-05-28T05:10:41.403Z,78.53
2023-05-28T05:13:08.160Z,74.29
2023-05-28T05:15:35.169Z,70.64
2023-05-28T05:18:01.997Z,67.05
2023-05-28T05:20:29.058Z,68.21
2023-05-28T05:22:58.133Z,67.14
2023-05-28T05:25:24.999Z,65.33
2023-05-28T05:27:52.171Z,65.43
2023-05-28T05:30:24.862Z,64.59
2023-05-28T05:32:51.562Z,63.34
2023-05-28T05:35:20.879Z,63.85
2023-05-28T05:37:50.335Z,62.40
2023-05-28T05:40:16.906Z,61.44
2023-05-28T05:42:45.577Z,62.51
2023-05-28T05:45:12.297Z,60.99
2023-05-28T05:47:39.337Z,59.46
2023-05-28T05:50:06.888Z,58.45
2023-05-28T05:52:34.238Z,59.59
2023-05-28T05:55:05.177Z,59.58
2023-05-28T05:57:33.427Z,58.66
2023-05-28T06:00:00.299Z,59.14
2023-05-28T06:02:29.113Z,59.61
2023-05-28T06:04:56.688Z,61.38
2023-05-28T06:07:23.768Z,62.69
2023-05-28T06:09:53.336Z,62.65
2023-05-28T06:12:21.705Z,61.77
2023-05-28T06:14:48.634Z,61.81
2023-05-28T06:17:16.199Z,60.66
2023-05-28T06:19:43.174Z,60.16
2023-05-28T06:22:13.385Z,59.20
2023-05-28T06:24:41.245Z,57.78
2023-05-28T06:27:11.779Z,57.42
2023-05-28T06:29:38.380Z,58.82
2023-05-28T06:32:05.290Z,58.11
2023-05-28T06:34:35.989Z,58.57
2023-05-28T06:37:15.300Z,58.14
2023-05-28T06:39:54.549Z,59.46
2023-05-28T06:42:33.751Z,59.54
2023-05-28T06:45:04.006Z,59.36
2023-05-28T06:47:30.950Z,59.41
2023-05-28T06:50:29.935Z,59.57
2023-05-28T06:52:57.997Z,59.43
2023-05-28T06:55:33.664Z,59.86
2023-05-28T06:58:08.815Z,58.98
2023-05-28T07:01:13.104Z,60.05
2023-05-28T07:06:57.485Z,58.58
2023-05-28T07:08:37.715Z,58.12
2023-05-28T07:09:30.850Z,58.99
2023-05-28T07:11:57.717Z,61.38
2023-05-28T07:14:34.092Z,63.35
2023-05-28T07:17:01.605Z,64.25
2023-05-28T07:19:46.654Z,64.21
2023-05-28T07:22:14.054Z,66.04
2023-05-28T07:24:59.654Z,64.51
2023-05-28T07:27:26.770Z,64.07
2023-05-28T07:30:31.058Z,63.36
2023-05-28T07:33:09.699Z,63.02
2023-05-28T07:35:46.190Z,63.95
2023-05-28T07:41:14.314Z,64.58
2023-05-28T07:43:48.394Z,64.57
2023-05-28T07:46:20.758Z,64.86
2023-05-28T07:48:47.632Z,63.75
2023-05-28T07:51:15.166Z,64.49
2023-05-28T07:53:41.722Z,63.77
2023-05-28T07:56:34.235Z,64.06
2023-05-28T08:00:03.968Z,64.15
2023-05-28T08:02:46.035Z,64.12
2023-05-28T08:05:16.595Z,64.73
2023-05-28T08:07:48.124Z,64.62
2023-05-28T08:10:15.003Z,64.29
2023-05-28T08:12:47.735Z,64.69
2023-05-28T08:15:16.590Z,63.63
2023-05-28T08:17:43.945Z,63.49
2023-05-28T08:20:12.827Z,62.82
2023-05-28T08:22:40.157Z,61.78
2023-05-28T08:25:07.316Z,61.85
2023-05-28T08:27:42.234Z,61.39
2023-05-28T08:30:10.264Z,60.45
2023-05-28T08:32:36.930Z,59.48
2023-05-28T08:35:08.629Z,60.52
2023-05-28T08:37:38.161Z,60.72
2023-05-28T08:40:10.233Z,61.89
2023-05-28T08:42:42.664Z,60.95
2023-05-28T08:45:09.568Z,62.48
2023-05-28T08:47:38.640Z,61.90
2023-05-28T08:50:07.711Z,61.96
2023-05-28T08:52:35.461Z,60.47
2023-05-28T08:55:02.605Z,60.08
2023-05-28T08:57:30.947Z,60.54
2023-05-28T08:59:59.570Z,60.28
2023-05-28T09:02:26.958Z,60.70
2023-05-28T09:05:01.995Z,59.11
2023-05-28T09:07:28.696Z,59.36
2023-05-28T09:09:57.853Z,58.12
2023-05-28T09:12:25.623Z,58.25
2023-05-28T09:14:54.684Z,59.00
2023-05-28T09:17:38.689Z,59.65
2023-05-28T09:20:15.513Z,58.39
2023-05-28T09:22:42.641Z,59.71
2023-05-28T09:25:09.763Z,59.61
2023-05-28T09:27:37.860Z,59.38
2023-05-28T09:30:14.545Z,59.54
2023-05-28T09:32:44.165Z,58.50
2023-05-28T09:35:11.971Z,58.37
2023-05-28T09:37:42.261Z,57.76
2023-05-28T09:40:12.891Z,57.11
2023-05-28T09:42:45.288Z,57.78
2023-05-28T09:45:12.788Z,56.50
2023-05-28T09:47:44.816Z,55.77
2023-05-28T09:50:12.515Z,55.48
2023-05-28T09:52:41.406Z,54.77
2023-05-28T09:55:11.354Z,54.65
2023-05-28T09:57:46.283Z,54.83
2023-05-28T10:00:24.640Z,53.54
2023-05-28T10:03:16.155Z,54.55
2023-05-28T10:05:52.166Z,54.02
2023-05-28T10:08:23.515Z,54.29
2023-05-28T10:10:55.449Z,53.85
2023-05-28T10:13:26.594Z,53.63
2023-05-28T10:15:54.671Z,52.87
2023-05-28T10:18:26.396Z,52.54
2023-05-28T10:20:56.847Z,52.74
2023-05-28T10:23:25.375Z,51.68
2023-05-28T10:25:58.131Z,52.00
2023-05-28T10:28:24.896Z,51.73
2023-05-28T10:31:16.390Z,52.83
2023-05-28T10:33:44.949Z,51.56
2023-05-28T10:36:15.990Z,52.44
2023-05-28T10:39:01.692Z,51.51
2023-05-28T10:41:33.436Z,50.47
2023-05-28T10:44:07.302Z,51.52
2023-05-28T10:46:42.570Z,50.11
2023-05-28T10:49:17.620Z,50.76
2023-05-28T10:52:04.590Z,50.99
2023-05-28T10:54:31.501Z,49.52
2023-05-28T10:57:19.371Z,51.13
2023-05-28T11:00:17.085Z,49.92
2023-05-28T11:03:44.809Z,49.39
2023-05-28T11:06:14.301Z,49.11
2023-05-28T11:08:55.758Z,49.25
2023-05-28T11:11:23.717Z,47.60
2023-05-28T11:13:50.377Z,48.18
2023-05-28T11:16:24.212Z,48.71
2023-05-28T11:22:09.533Z,48.08
2023-05-28T11:30:57.408Z,47.36
2023-05-28T11:33:39.118Z,47.36
2023-05-28T11:36:09.654Z,47.76
2023-05-28T11:38:37.009Z,46.72
2023-05-28T11:41:05.094Z,47.73
2023-05-28T11:43:34.135Z,47.58
2023-05-28T11:46:07.796Z,48.27
2023-05-28T11:48:39.830Z,48.85
2023-05-28T11:51:06.646Z,47.68
2023-05-28T11:53:47.404Z,47.37
2023-05-28T11:56:15.098Z,47.89
2023-05-28T11:58:51.074Z,47.36
2023-05-28T12:01:20.748Z,46.36
2023-05-28T12:03:47.695Z,45.91
2023-05-28T12:06:23.109Z,46.48
2023-05-28T12:09:05.682Z,47.29
2023-05-28T12:11:49.775Z,45.83
2023-05-28T12:14:22.488Z,46.13
2023-05-28T12:16:53.032Z,45.16
2023-05-28T12:19:19.665Z,46.20
2023-05-28T12:21:49.054Z,46.45
2023-05-28T12:24:16.647Z,45.73
2023-05-28T12:26:43.763Z,45.13
2023-05-28T12:29:11.080Z,45.27
2023-05-28T12:31:37.975Z,45.65
2023-05-28T12:34:04.625Z,45.83
2023-05-28T12:36:41.657Z,45.25
2023-05-28T12:39:08.602Z,45.24
2023-05-28T12:41:37.838Z,45.02
2023-05-28T12:44:10.565Z,46.19
2023-05-28T12:46:37.528Z,46.04
2023-05-28T12:49:04.476Z,46.68
2023-05-28T12:51:37.484Z,46.40
2023-05-28T12:54:04.262Z,46.68
2023-05-28T12:56:30.967Z,46.21
2023-05-28T12:58:57.795Z,45.81
2023-05-28T13:01:27.190Z,46.05
2023-05-28T13:03:54.199Z,43.53
2023-05-28T13:06:21.089Z,43.86
2023-05-28T13:08:47.944Z,43.76
2023-05-28T13:11:17.768Z,44.85
2023-05-28T13:13:46.919Z,44.80
2023-05-28T13:16:19.045Z,44.32
2023-05-28T13:18:47.182Z,45.84
2023-05-28T13:21:17.216Z,45.74
2023-05-28T13:23:43.706Z,44.99
2023-05-28T13:26:10.748Z,45.38
2023-05-28T13:28:37.539Z,45.32
2023-05-28T13:31:06.851Z,44.65
2023-05-28T13:33:33.669Z,44.80
2023-05-28T13:36:00.838Z,44.78
2023-05-28T13:38:28.040Z,45.76
2023-05-28T13:40:56.839Z,46.04
2023-05-28T13:43:23.850Z,45.07
2023-05-28T13:45:51.597Z,44.21
2023-05-28T13:48:22.493Z,44.37
2023-05-28T13:50:50.052Z,44.45
2023-05-28T13:53:18.160Z,44.23
2023-05-28T13:55:45.225Z,45.12
2023-05-28T13:58:12.172Z,44.58
2023-05-28T14:00:39.720Z,43.51
2023-05-28T14:03:07.191Z,43.76
2023-05-28T14:05:36.474Z,43.14
2023-05-28T14:08:03.966Z,42.91
2023-05-28T14:10:34.844Z,42.12
2023-05-28T14:13:01.724Z,42.59
2023-05-28T14:15:28.851Z,41.88
2023-05-28T14:17:55.629Z,41.16
2023-05-28T14:20:24.636Z,41.09
2023-05-28T14:22:56.849Z,40.61
2023-05-28T14:25:24.756Z,40.96
2023-05-28T14:28:00.099Z,39.95
2023-05-28T14:30:47.891Z,40.93
2023-05-28T14:33:14.862Z,41.19
2023-05-28T14:35:42.764Z,39.79
2023-05-28T14:38:09.387Z,39.90
2023-05-28T14:40:36.291Z,39.89
2023-05-28T14:43:02.859Z,40.42
2023-05-28T14:45:29.770Z,40.48
2023-05-28T14:48:05.708Z,40.67
2023-05-28T14:50:32.382Z,39.60
2023-05-28T14:52:59.601Z,39.81
2023-05-28T14:55:29.108Z,39.75
2023-05-28T14:57:58.622Z,38.53
2023-05-28T15:00:25.816Z,38.04
2023-05-28T15:02:52.714Z,38.03
2023-05-28T15:05:21.111Z,37.59
2023-05-28T15:07:49.290Z,36.95
2023-05-28T15:10:16.854Z,36.06
2023-05-28T15:12:43.800Z,36.39
2023-05-28T15:15:11.294Z,35.86
2023-05-28T15:17:38.200Z,34.20
2023-05-28T15:20:05.976Z,35.46
2023-05-28T15:22:32.907Z,35.03
2023-05-28T15:25:00.015Z,33.78
2023-05-28T15:27:26.694Z,33.68
2023-05-28T15:29:53.488Z,34.62
2023-05-28T15:32:20.840Z,34.70
2023-05-28T15:34:47.809Z,32.65
2023-05-28T15:37:14.891Z,33.46
2023-05-28T15:39:45.298Z,32.70
2023-05-28T15:42:11.935Z,32.27
2023-05-28T15:44:39.226Z,33.63
2023-05-28T15:47:07.499Z,33.43
2023-05-28T15:49:36.897Z,33.77
2023-05-28T15:52:05.647Z,33.38
2023-05-28T15:54:32.373Z,31.99
2023-05-28T15:57:01.596Z,31.78
2023-05-28T15:59:29.591Z,32.64
2023-05-28T16:01:59.385Z,32.38
2023-05-28T16:04:29.779Z,32.17
2023-05-28T16:06:56.656Z,31.73
2023-05-28T16:09:27.066Z,31.73
2023-05-28T16:11:56.372Z,31.84
2023-05-28T16:14:24.149Z,32.24
2023-05-28T16:16:54.512Z,31.85
2023-05-28T16:19:22.195Z,31.95
2023-05-28T16:21:49.232Z,34.58
2023-05-28T16:24:18.364Z,39.06
2023-05-28T16:26:49.811Z,41.77
2023-05-28T16:29:21.319Z,41.95
2023-05-28T16:31:48.834Z,44.15
2023-05-28T16:34:16.501Z,45.12
2023-05-28T16:36:43.604Z,46.05
2023-05-28T16:39:10.913Z,46.06
2023-05-28T16:41:37.620Z,46.69
2023-05-28T16:44:04.493Z,47.03
2023-05-28T16:46:31.349Z,47.22
2023-05-28T16:49:01.809Z,47.33
2023-05-28T16:51:38.962Z,47.09
2023-05-28T16:55:21.877Z,47.27
2023-05-28T16:58:00.510Z,47.64
2023-05-28T17:01:06.010Z,47.92
2023-05-28T17:04:41.384Z,48.22
2023-05-28T17:07:11.101Z,47.34
2023-05-28T17:09:47.427Z,47.86
2023-05-28T17:12:17.572Z,48.00
2023-05-28T17:14:44.515Z,47.92
2023-05-28T17:17:20.158Z,48.14
2023-05-28T17:19:49.640Z,48.60
2023-05-28T17:22:16.599Z,48.89
2023-05-28T17:24:43.328Z,48.59
2023-05-28T17:27:16.141Z,48.81
2023-05-28T17:29:52.674Z,48.80
2023-05-28T17:32:19.617Z,49.30
2023-05-28T17:37:32.418Z,49.96
2023-05-28T17:39:59.315Z,50.05
2023-05-28T17:42:52.874Z,50.64
2023-05-28T17:45:21.114Z,51.64
2023-05-28T17:47:48.038Z,52.09
2023-05-28T17:50:17.142Z,52.12
2023-05-28T17:52:47.863Z,53.08
2023-05-28T17:55:22.899Z,52.42
2023-05-28T17:57:54.248Z,53.38
2023-05-28T18:00:22.763Z,53.60
2023-05-28T18:03:00.122Z,54.53
2023-05-28T18:05:28.933Z,54.06
2023-05-28T18:07:57.708Z,54.71
2023-05-28T18:10:28.783Z,55.36
2023-05-28T18:12:56.637Z,56.30
2023-05-28T18:15:31.877Z,56.27
2023-05-28T18:17:59.332Z,57.59
2023-05-28T18:20:27.022Z,58.25
2023-05-28T18:22:53.784Z,58.63
2023-05-28T18:25:22.661Z,58.57
2023-05-28T18:27:51.276Z,58.99
2023-05-28T18:30:21.547Z,60.01
2023-05-28T18:32:49.127Z,59.93
2023-05-28T18:35:16.316Z,59.94
2023-05-28T18:37:43.062Z,60.52
2023-05-28T18:40:12.432Z,61.05
2023-05-28T18:42:39.678Z,61.50
2023-05-28T18:45:08.605Z,62.26
2023-05-28T18:47:37.000Z,62.16
2023-05-28T18:50:08.476Z,62.02
2023-05-28T18:52:41.476Z,62.82
2023-05-28T18:55:08.996Z,62.94
2023-05-28T18:57:36.374Z,62.97
2023-05-28T19:00:08.924Z,62.94
2023-05-28T19:02:38.021Z,63.68
2023-05-28T19:05:07.807Z,63.71
2023-05-28T19:07:36.146Z,64.23
2023-05-28T19:10:06.856Z,64.25
2023-05-28T19:12:33.586Z,65.27
2023-05-28T19:15:04.486Z,65.17
2023-05-28T19:17:32.010Z,65.24
2023-05-28T19:20:00.441Z,66.00
2023-05-28T19:22:30.674Z,65.73
2023-05-28T19:25:09.020Z,65.89
2023-05-28T19:27:40.837Z,66.82
2023-05-28T19:30:14.428Z,67.06
2023-05-28T19:32:44.344Z,66.86
2023-05-28T19:35:19.682Z,67.86
2023-05-28T19:37:50.198Z,67.38
2023-05-28T19:40:21.633Z,67.89
2023-05-28T19:42:59.092Z,68.80
2023-05-28T19:45:28.824Z,68.66
2023-05-28T19:47:59.257Z,69.08
2023-05-28T19:50:35.364Z,69.28
2023-05-28T19:53:02.113Z,69.60
2023-05-28T19:55:34.212Z,69.84
2023-05-28T19:58:01.343Z,70.07
2023-05-28T20:00:29.430Z,70.34
2023-05-28T20:02:59.137Z,71.07
2023-05-28T20:05:28.084Z,70.87
2023-05-28T20:08:04.596Z,71.05
2023-05-28T20:10:34.341Z,70.99
2023-05-28T20:13:04.874Z,71.48
2023-05-28T20:15:34.860Z,71.80
2023-05-28T20:18:10.236Z,71.34
2023-05-28T20:20:42.926Z,71.85
2023-05-28T20:23:09.597Z,72.05
2023-05-28T20:25:38.821Z,72.30
2023-05-28T20:28:06.060Z,72.62
2023-05-28T20:30:32.660Z,72.94
2023-05-28T20:32:59.679Z,73.07
2023-05-28T20:35:29.958Z,73.59
2023-05-28T20:38:04.866Z,73.75
2023-05-28T20:40:33.557Z,74.29
2023-05-28T20:43:01.743Z,74.22
2023-05-28T20:45:28.339Z,73.98
2023-05-28T20:48:01.041Z,74.56
2023-05-28T20:50:30.904Z,75.11
2023-05-28T20:53:01.191Z,75.00
2023-05-28T20:55:29.893Z,75.41
2023-05-28T20:57:56.586Z,76.38
2023-05-28T21:00:29.103Z,75.72
2023-05-28T21:03:00.259Z,76.22
2023-05-28T21:05:27.449Z,76.22
2023-05-28T21:07:54.678Z,76.41
2023-05-28T21:10:21.616Z,76.58
2023-05-28T21:12:51.570Z,76.49
2023-05-28T21:15:19.063Z,76.75
2023-05-28T21:17:50.824Z,77.36
2023-05-28T21:20:19.364Z,77.12
2023-05-28T21:22:50.561Z,77.23
2023-05-28T21:25:28.785Z,77.24
2023-05-28T21:27:58.703Z,77.15
2023-05-28T21:30:30.024Z,77.46
2023-05-28T21:32:57.183Z,77.58
2023-05-28T21:35:26.865Z,77.86
2023-05-28T21:37:55.337Z,78.33
2023-05-28T21:40:23.602Z,78.38
2023-05-28T21:43:02.855Z,78.15
2023-05-28T21:45:37.817Z,77.52
2023-05-28T21:48:07.518Z,77.58
2023-05-28T21:50:36.031Z,76.89
2023-05-28T21:53:05.001Z,77.04
2023-05-28T21:55:34.589Z,76.99
2023-05-28T21:58:04.158Z,76.62
2023-05-28T22:00:32.242Z,76.47
2023-05-28T22:03:02.896Z,76.12
2023-05-28T22:05:32.577Z,76.50
2023-05-28T22:08:06.310Z,75.79
2023-05-28T22:10:40.532Z,75.25
2023-05-28T22:13:07.270Z,74.96
2023-05-28T22:15:39.930Z,75.29
2023-05-28T22:18:07.017Z,74.77
2023-05-28T22:20:42.767Z,74.83
2023-05-28T22:23:11.658Z,75.15
2023-05-28T22:25:42.277Z,74.67
2023-05-28T22:28:08.956Z,75.09
2023-05-28T22:30:40.942Z,75.26
2023-05-28T22:33:12.215Z,75.38
2023-05-28T22:35:40.613Z,75.52
2023-05-28T22:38:21.967Z,75.28
2023-05-28T22:40:55.508Z,75.16
2023-05-28T22:43:22.084Z,76.30
2023-05-28T22:45:51.878Z,76.16
2023-05-28T22:48:19.055Z,75.98
2023-05-28T22:50:45.835Z,75.97
2023-05-28T22:53:12.931Z,76.19
2023-05-28T22:55:41.904Z,75.76
2023-05-28T22:58:09.278Z,76.68
2023-05-28T23:00:36.384Z,77.26
2023-05-28T23:03:09.151Z,77.31
2023-05-28T23:05:36.034Z,77.77
2023-05-28T23:08:02.732Z,78.20
2023-05-28T23:10:31.875Z,78.44
2023-05-28T23:12:59.946Z,78.21
2023-05-28T23:15:28.026Z,78.61
2023-05-28T23:17:55.320Z,79.26
2023-05-28T23:20:21.964Z,79.06
2023-05-28T23:22:48.928Z,79.48
2023-05-28T23:25:16.402Z,79.04
2023-05-28T23:27:42.894Z,79.82
2023-05-28T23:30:10.972Z,79.29
2023-05-28T23:32:37.961Z,79.38
2023-05-28T23:35:05.822Z,79.44
2023-05-28T23:37:33.421Z,79.64
2023-05-28T23:40:00.556Z,79.38
2023-05-28T23:42:29.774Z,79.40
2023-05-28T23:44:57.408Z,79.57
2023-05-28T23:47:24.183Z,80.47
2023-05-28T23:49:51.675Z,80.74
2023-05-28T23:52:18.537Z,80.70
2023-05-28T23:54:48.796Z,80.78
2023-05-28T23:57:16.356Z,80.47
2023-05-28T23:59:43.008Z,81.08
